Time;durP1;ratioP1;P1;durP2;ratioP2;P2;SDS_P1;SDS_P2;PMS_P1;PMS_P2;Temp;Humidity;BMP_temperature;BMP_pressure;BME280_temperature;BME280_humidity;BME280_pressure;Samples;Min_cycle;Max_cycle;Signal;HPM_P1;HPM_P2
2021/11/13 05:00:29;;;;;;;38.83;21.63;;;5.80;99.90;;;;;;6075677;22;20360;-72
2021/11/13 05:02:57;;;;;;;41.63;22.70;;;5.80;99.90;;;;;;5036480;28;20194;-73
2021/11/13 05:05:24;;;;;;;40.08;20.95;;;5.80;99.90;;;;;;5051022;28;20201;-72
2021/11/13 05:07:52;;;;;;;38.15;20.55;;;5.90;99.90;;;;;;5050456;28;20233;-72
2021/11/13 05:10:19;;;;;;;40.05;21.60;;;5.90;99.90;;;;;;5050928;28;20206;-72
2021/11/13 05:12:46;;;;;;;35.90;21.77;;;5.90;99.90;;;;;;5050681;28;20648;-72
2021/11/13 05:15:13;;;;;;;40.30;20.83;;;5.90;99.90;;;;;;5051109;28;20556;-72
2021/11/13 05:17:42;;;;;;;31.00;20.00;;;5.90;99.90;;;;;;5050242;28;20229;-72
2021/11/13 05:20:11;;;;;;;40.95;22.05;;;5.90;99.90;;;;;;5050884;28;20305;-72
2021/11/13 05:22:39;;;;;;;33.42;21.00;;;5.90;99.90;;;;;;5050488;28;20212;-71
2021/11/13 05:25:09;;;;;;;40.17;21.00;;;5.90;99.90;;;;;;5050742;28;20202;-70
2021/11/13 05:27:36;;;;;;;37.25;20.08;;;5.90;99.90;;;;;;5074446;22;20283;-71
2021/11/13 05:30:04;;;;;;;32.58;21.17;;;6.00;99.90;;;;;;5050717;28;20271;-72
2021/11/13 05:32:31;;;;;;;36.63;21.60;;;5.90;99.90;;;;;;5049987;28;20305;-72
2021/11/13 05:34:59;;;;;;;34.00;20.50;;;6.00;99.90;;;;;;5050351;28;20205;-72
2021/11/13 05:37:26;;;;;;;37.55;21.40;;;6.00;99.90;;;;;;5050190;28;20279;-72
2021/11/13 05:39:52;;;;;;;40.10;21.27;;;6.00;99.90;;;;;;5050268;28;20236;-72
2021/11/13 05:42:20;;;;;;;31.00;16.52;;;6.00;99.90;;;;;;5050079;28;20225;-72
2021/11/13 05:44:47;;;;;;;37.45;20.42;;;6.00;99.90;;;;;;5050443;28;20206;-72
2021/11/13 05:47:14;;;;;;;42.80;22.45;;;6.00;99.90;;;;;;5049745;28;20316;-72
2021/11/13 05:49:41;;;;;;;38.17;20.83;;;6.00;99.90;;;;;;5046348;28;20209;-72
2021/11/13 05:52:10;;;;;;;33.67;19.73;;;6.00;99.90;;;;;;5050258;28;20638;-72
2021/11/13 05:54:36;;;;;;;34.47;20.48;;;6.00;99.90;;;;;;5050283;28;20214;-72
2021/11/13 05:57:04;;;;;;;33.80;20.15;;;6.00;99.90;;;;;;5049721;28;20234;-72
2021/11/13 05:59:30;;;;;;;36.53;21.58;;;6.00;99.90;;;;;;5050096;28;20210;-73
2021/11/13 06:01:57;;;;;;;35.45;20.73;;;6.00;99.90;;;;;;5049637;28;20210;-72
2021/11/13 06:04:24;;;;;;;36.33;20.35;;;6.00;99.90;;;;;;5050277;28;20232;-72
2021/11/13 06:06:50;;;;;;;38.03;20.15;;;6.00;99.90;;;;;;5050235;28;20280;-73
2021/11/13 06:09:18;;;;;;;31.42;16.73;;;6.00;99.90;;;;;;5052004;28;20233;-73
2021/11/13 06:11:45;;;;;;;33.03;20.50;;;6.00;99.90;;;;;;5054041;28;20666;-73
2021/11/13 06:14:12;;;;;;;37.35;21.70;;;6.00;99.90;;;;;;5054383;28;20217;-73
2021/11/13 06:16:38;;;;;;;31.90;18.00;;;6.00;99.90;;;;;;5054403;28;20240;-72
2021/11/13 06:19:05;;;;;;;33.45;21.20;;;5.90;99.90;;;;;;5053865;28;20208;-73
2021/11/13 06:21:32;;;;;;;33.63;20.63;;;5.90;99.90;;;;;;5054973;28;20275;-73
2021/11/13 06:23:58;;;;;;;40.05;20.83;;;6.00;99.90;;;;;;5053994;28;20213;-72
2021/11/13 06:26:27;;;;;;;32.60;20.70;;;6.00;99.90;;;;;;5053741;28;20206;-72
2021/11/13 06:28:53;;;;;;;37.30;20.40;;;6.10;99.90;;;;;;5054862;28;20253;-72
2021/11/13 06:31:20;;;;;;;33.00;20.50;;;6.10;99.90;;;;;;5057977;28;20270;-72
2021/11/13 06:33:47;;;;;;;35.80;21.40;;;6.10;99.90;;;;;;5057508;28;20214;-71
2021/11/13 06:36:13;;;;;;;31.63;18.77;;;6.10;99.90;;;;;;5059106;28;20210;-71
2021/11/13 06:38:40;;;;;;;32.33;20.15;;;6.10;99.90;;;;;;5055534;28;20299;-72
2021/11/13 06:41:07;;;;;;;33.45;20.50;;;6.10;99.90;;;;;;5053838;28;20205;-71
2021/11/13 06:43:35;;;;;;;26.85;19.30;;;6.10;99.90;;;;;;5053915;28;20296;-72
2021/11/13 06:46:02;;;;;;;37.35;20.05;;;6.10;99.90;;;;;;5053768;28;20206;-71
2021/11/13 06:48:28;;;;;;;36.90;19.73;;;6.10;99.90;;;;;;5052833;28;20672;-71
2021/11/13 06:50:55;;;;;;;29.65;18.38;;;6.10;99.90;;;;;;5053306;28;20674;-70
2021/11/13 06:53:22;;;;;;;38.97;21.40;;;6.10;99.90;;;;;;5053368;28;20210;-71
2021/11/13 06:55:49;;;;;;;30.98;18.60;;;6.10;99.90;;;;;;5053043;28;20217;-71
2021/11/13 06:58:16;;;;;;;31.05;20.55;;;6.20;99.90;;;;;;5054184;28;20249;-72
2021/11/13 07:00:45;;;;;;;28.58;17.80;;;6.20;99.90;;;;;;5054583;28;20232;-71
2021/11/13 07:03:12;;;;;;;32.42;19.48;;;6.20;99.90;;;;;;5053791;28;20205;-71
2021/11/13 07:05:39;;;;;;;30.00;18.85;;;6.20;99.90;;;;;;5053693;28;20259;-71
2021/11/13 07:08:07;;;;;;;31.80;19.13;;;6.20;99.90;;;;;;5053501;28;20541;-72
2021/11/13 07:10:33;;;;;;;33.80;19.52;;;6.30;99.90;;;;;;5053950;28;20296;-71
2021/11/13 07:13:00;;;;;;;28.27;20.00;;;6.30;99.90;;;;;;5054229;28;20271;-72
2021/11/13 07:15:31;;;;;;;34.47;18.98;;;6.30;99.90;;;;;;5054598;28;20653;-72
2021/11/13 07:18:01;;;;;;;34.70;21.10;;;6.30;99.90;;;;;;5054268;28;20234;-72
2021/11/13 07:20:28;;;;;;;32.40;19.73;;;6.30;99.90;;;;;;5053848;28;20202;-71
2021/11/13 07:22:56;;;;;;;26.15;17.38;;;6.40;99.90;;;;;;5054037;28;20214;-72
2021/11/13 07:25:25;;;;;;;30.48;19.90;;;6.40;99.90;;;;;;5053107;28;20237;-73
2021/11/13 07:27:52;;;;;;;28.85;19.42;;;6.40;99.90;;;;;;5051153;28;20242;-71
2021/11/13 07:30:20;;;;;;;28.90;19.08;;;6.40;99.90;;;;;;5050824;28;20202;-72
2021/11/13 07:32:49;;;;;;;31.45;19.20;;;6.40;99.90;;;;;;5053523;28;20288;-73
2021/11/13 07:35:17;;;;;;;28.98;18.85;;;6.40;99.90;;;;;;5053611;28;20210;-73
2021/11/13 07:37:44;;;;;;;31.15;19.73;;;6.40;99.90;;;;;;5053127;28;20234;-72
2021/11/13 07:40:11;;;;;;;25.98;17.85;;;6.40;99.90;;;;;;5053849;28;20637;-73
2021/11/13 07:42:38;;;;;;;25.08;17.05;;;6.50;99.90;;;;;;5052924;28;20221;-72
2021/11/13 07:45:07;;;;;;;26.88;17.25;;;6.50;99.90;;;;;;5053209;28;20212;-73
2021/11/13 07:47:35;;;;;;;30.30;19.75;;;6.50;99.90;;;;;;5052407;28;20252;-72
2021/11/13 07:50:02;;;;;;;27.50;17.90;;;6.50;99.90;;;;;;5054012;28;20212;-72
2021/11/13 07:52:30;;;;;;;30.38;19.33;;;6.60;99.90;;;;;;5053924;28;20236;-72
2021/11/13 07:54:56;;;;;;;23.13;15.45;;;6.60;99.90;;;;;;5053907;28;20202;-71
2021/11/13 07:57:23;;;;;;;27.00;19.23;;;6.60;99.90;;;;;;5052969;28;20234;-70
2021/11/13 07:59:50;;;;;;;28.83;19.05;;;6.60;99.90;;;;;;5052959;28;20737;-70
2021/11/13 08:02:16;;;;;;;26.88;18.25;;;6.60;99.90;;;;;;5052487;28;20205;-70
2021/11/13 08:04:43;;;;;;;28.92;20.23;;;6.70;99.90;;;;;;5053244;28;20209;-71
2021/11/13 08:07:10;;;;;;;46.38;29.02;;;6.70;99.90;;;;;;5053132;28;20225;-70
2021/11/13 08:09:38;;;;;;;44.63;26.85;;;6.70;99.90;;;;;;5052843;28;20233;-69
2021/11/13 08:12:05;;;;;;;43.13;27.95;;;6.70;99.90;;;;;;5052596;28;20202;-70
2021/11/13 08:14:31;;;;;;;46.20;28.80;;;6.70;99.90;;;;;;5053241;28;20251;-70
2021/11/13 08:16:58;;;;;;;50.42;31.33;;;6.70;99.90;;;;;;5052424;28;20237;-69
2021/11/13 08:19:25;;;;;;;32.78;21.98;;;6.70;99.90;;;;;;5050752;28;20198;-71
2021/11/13 08:21:51;;;;;;;59.45;40.75;;;6.70;99.90;;;;;;5052915;28;20213;-71
2021/11/13 08:24:20;;;;;;;40.67;26.25;;;6.70;99.90;;;;;;5052859;28;20286;-71
2021/11/13 08:26:48;;;;;;;37.88;22.63;;;6.70;99.90;;;;;;5052114;28;20209;-70
2021/11/13 08:29:15;;;;;;;30.95;21.88;;;6.80;99.90;;;;;;5052250;28;20230;-71
2021/11/13 08:31:42;;;;;;;39.63;26.45;;;6.70;99.90;;;;;;5051438;28;20206;-70
2021/11/13 08:34:09;;;;;;;32.47;20.70;;;6.70;99.90;;;;;;5051482;28;20255;-71
2021/11/13 08:36:36;;;;;;;27.23;19.00;;;6.70;99.90;;;;;;5052202;28;20232;-70
2021/11/13 08:39:03;;;;;;;34.10;20.67;;;6.70;99.90;;;;;;5052048;28;20202;-69
2021/11/13 08:41:30;;;;;;;22.85;17.75;;;6.80;99.90;;;;;;5050911;28;20214;-72
2021/11/13 08:43:58;;;;;;;31.25;18.85;;;6.80;99.90;;;;;;5050296;28;20697;-72
2021/11/13 08:46:25;;;;;;;26.75;18.85;;;6.90;99.90;;;;;;5049598;28;20221;-71
2021/11/13 08:48:52;;;;;;;23.65;17.23;;;6.90;99.90;;;;;;5049335;28;20226;-71
2021/11/13 08:51:19;;;;;;;29.90;18.92;;;6.90;99.90;;;;;;5048201;28;20248;-70
2021/11/13 08:53:53;;;;;;;30.98;18.77;;;6.90;99.90;;;;;;5050912;28;20205;-70
2021/11/13 08:56:20;;;;;;;25.85;17.60;;;6.90;99.90;;;;;;5049465;28;20224;-71
2021/11/13 08:58:46;;;;;;;29.75;18.85;;;6.90;99.90;;;;;;5047113;28;20217;-71
2021/11/13 09:01:14;;;;;;;29.17;19.00;;;6.90;99.90;;;;;;5050467;28;20206;-70
2021/11/13 09:03:43;;;;;;;25.45;18.55;;;6.90;99.90;;;;;;5050782;28;20197;-70
2021/11/13 09:06:13;;;;;;;26.38;17.05;;;7.00;99.90;;;;;;5051533;28;20221;-70
2021/11/13 09:08:41;;;;;;;29.90;18.40;;;7.00;99.90;;;;;;5050736;28;20230;-70
2021/11/13 09:11:09;;;;;;;26.55;17.77;;;7.00;99.90;;;;;;5051362;28;20604;-70
2021/11/13 09:13:37;;;;;;;23.60;17.80;;;7.10;99.90;;;;;;5051681;28;20232;-71
2021/11/13 09:16:05;;;;;;;26.85;17.70;;;7.10;99.90;;;;;;5044531;28;20237;-70
2021/11/13 09:18:33;;;;;;;26.45;17.58;;;7.20;99.90;;;;;;5031059;28;20703;-70
2021/11/13 09:21:01;;;;;;;23.55;16.27;;;7.20;99.90;;;;;;5032030;28;20241;-69
2021/11/13 09:23:28;;;;;;;19.95;15.50;;;7.30;99.90;;;;;;5031780;28;20294;-69
2021/11/13 09:25:55;;;;;;;22.67;16.17;;;7.30;99.90;;;;;;5050067;28;20217;-69
2021/11/13 09:28:22;;;;;;;17.23;14.18;;;7.40;99.90;;;;;;5046592;28;20240;-69
2021/11/13 09:30:49;;;;;;;24.45;16.60;;;7.40;99.90;;;;;;5050733;28;20210;-71
2021/11/13 09:33:16;;;;;;;20.15;15.40;;;7.50;99.90;;;;;;5070599;28;20685;-70
2021/11/13 09:35:45;;;;;;;20.88;15.00;;;7.50;99.90;;;;;;5064638;28;20259;-70
2021/11/13 09:38:12;;;;;;;19.52;14.93;;;7.50;99.90;;;;;;5048423;28;20222;-70
2021/11/13 09:40:40;;;;;;;21.67;14.90;;;7.50;99.90;;;;;;5050526;28;20451;-69
2021/11/13 09:43:08;;;;;;;18.48;15.25;;;7.60;99.90;;;;;;5052779;28;20282;-69
2021/11/13 09:45:35;;;;;;;22.27;16.17;;;7.60;99.90;;;;;;5052214;28;20202;-69
2021/11/13 09:48:04;;;;;;;21.55;15.43;;;7.70;99.90;;;;;;5043956;28;20229;-71
2021/11/13 09:50:33;;;;;;;21.35;15.13;;;7.70;99.90;;;;;;5052751;28;20267;-69
2021/11/13 09:53:02;;;;;;;35.45;25.88;;;7.70;99.90;;;;;;5053369;28;20209;-69
2021/11/13 09:55:29;;;;;;;16.75;13.60;;;7.80;99.90;;;;;;5041972;28;20632;-70
2021/11/13 09:57:56;;;;;;;20.38;14.70;;;7.90;99.90;;;;;;5050077;28;20702;-69
2021/11/13 10:00:28;;;;;;;19.42;14.70;;;7.90;99.90;;;;;;5050359;28;20190;-71
2021/11/13 10:02:56;;;;;;;18.17;14.23;;;8.00;99.90;;;;;;5050129;28;20205;-69
2021/11/13 10:05:24;;;;;;;18.35;13.15;;;8.00;99.90;;;;;;5050726;28;20202;-69
2021/11/13 10:07:51;;;;;;;18.50;13.63;;;8.00;99.90;;;;;;5042697;28;20222;-69
2021/11/13 10:10:30;;;;;;;15.30;12.57;;;8.00;99.90;;;;;;5049576;28;20221;-70
2021/11/13 10:12:57;;;;;;;18.67;14.10;;;8.10;99.90;;;;;;5054929;28;20236;-69
2021/11/13 10:15:27;;;;;;;17.50;13.80;;;8.10;99.90;;;;;;5051926;28;20210;-70
2021/11/13 10:18:08;;;;;;;17.90;13.60;;;8.10;99.90;;;;;;5050192;28;20550;-69
2021/11/13 10:20:35;;;;;;;15.05;12.88;;;8.10;99.90;;;;;;5050548;28;20225;-69
2021/11/13 10:23:02;;;;;;;18.83;14.07;;;8.10;99.90;;;;;;5050329;28;20224;-69
2021/11/13 10:25:30;;;;;;;22.35;13.50;;;8.10;99.90;;;;;;5049802;28;20214;-69
2021/11/13 10:28:10;;;;;;;20.67;13.93;;;8.10;99.90;;;;;;5049513;28;20225;-69
2021/11/13 10:30:37;;;;;;;14.25;11.80;;;8.10;99.90;;;;;;5050217;28;20255;-69
2021/11/13 10:33:04;;;;;;;21.38;14.77;;;8.20;99.90;;;;;;5049584;28;20206;-69
2021/11/13 10:35:43;;;;;;;15.98;13.45;;;8.20;99.90;;;;;;5049772;28;20639;-70
2021/11/13 10:38:15;;;;;;;17.73;14.38;;;8.30;99.90;;;;;;5049344;28;20707;-68
2021/11/13 10:40:56;;;;;;;15.48;12.73;;;8.30;99.90;;;;;;5048918;28;20281;-70
2021/11/13 10:43:33;;;;;;;17.65;13.02;;;8.40;99.90;;;;;;5049386;28;20193;-71
2021/11/13 10:46:02;;;;;;;15.00;11.93;;;8.40;99.90;;;;;;5064536;28;20204;-70
2021/11/13 10:48:29;;;;;;;17.13;12.20;;;8.50;99.90;;;;;;5069648;28;20225;-70
2021/11/13 10:51:05;;;;;;;16.08;11.95;;;8.50;99.90;;;;;;5051881;28;20202;-68
2021/11/13 10:53:33;;;;;;;15.57;12.18;;;8.50;99.90;;;;;;5048392;28;20574;-70
2021/11/13 10:56:13;;;;;;;14.15;11.02;;;8.50;99.90;;;;;;5052107;28;20202;-70
2021/11/13 10:58:43;;;;;;;14.57;12.50;;;8.40;99.90;;;;;;5053518;28;20234;-70
2021/11/13 11:01:11;;;;;;;17.42;12.32;;;8.50;99.90;;;;;;5053687;28;20209;-70
2021/11/13 11:03:41;;;;;;;15.23;11.98;;;8.50;99.90;;;;;;5052781;28;20566;-70
2021/11/13 11:06:11;;;;;;;17.35;11.60;;;8.50;99.90;;;;;;5053542;28;20221;-69
2021/11/13 11:08:41;;;;;;;14.93;11.77;;;8.60;99.90;;;;;;5052853;28;20222;-68
2021/11/13 11:11:33;;;;;;;12.38;11.02;;;8.70;99.90;;;;;;5053213;28;20669;-70
2021/11/13 11:14:02;;;;;;;16.08;11.52;;;8.70;99.90;;;;;;5052893;28;20201;-69
2021/11/13 11:16:31;;;;;;;14.57;11.48;;;8.70;99.90;;;;;;5052975;28;20201;-70
2021/11/13 11:19:05;;;;;;;13.35;10.63;;;8.80;99.90;;;;;;5053329;28;20201;-69
2021/11/13 11:21:52;;;;;;;18.13;14.73;;;8.80;99.90;;;;;;5053754;28;20711;-70
2021/11/13 11:24:22;;;;;;;18.00;13.95;;;9.00;99.90;;;;;;5053211;28;20201;-70
2021/11/13 11:26:58;;;;;;;15.95;13.50;;;9.00;99.90;;;;;;5052635;28;20220;-70
2021/11/13 11:29:26;;;;;;;13.95;12.13;;;9.10;99.90;;;;;;5053206;28;20227;-72
2021/11/13 11:31:55;;;;;;;20.08;14.70;;;9.10;99.90;;;;;;5053042;28;20220;-72
2021/11/13 11:34:27;;;;;;;22.42;17.48;;;9.10;99.90;;;;;;5053180;28;20303;-71
2021/11/13 11:36:56;;;;;;;18.92;12.70;;;9.20;99.90;;;;;;5052890;28;20221;-69
2021/11/13 11:39:23;;;;;;;15.00;12.95;;;9.20;99.90;;;;;;5051902;28;20201;-70
2021/11/13 11:41:51;;;;;;;15.95;11.25;;;9.20;99.90;;;;;;5051675;28;20292;-70
2021/11/13 11:44:19;;;;;;;13.88;10.18;;;9.20;99.90;;;;;;5052966;28;20236;-70
2021/11/13 11:46:47;;;;;;;15.50;12.65;;;9.20;99.90;;;;;;5051849;28;20213;-70
2021/11/13 11:49:15;;;;;;;12.63;10.88;;;9.30;99.90;;;;;;5051855;28;20222;-70
2021/11/13 11:51:43;;;;;;;13.60;10.07;;;9.30;99.90;;;;;;5051849;28;20198;-69
2021/11/13 11:54:10;;;;;;;17.23;11.38;;;9.20;99.90;;;;;;5051806;28;20255;-69
2021/11/13 11:56:37;;;;;;;13.30;10.40;;;9.30;99.90;;;;;;5051981;28;20209;-70
2021/11/13 11:59:06;;;;;;;10.90;9.68;;;9.20;99.90;;;;;;5051001;28;20206;-69
2021/11/13 12:01:37;;;;;;;13.70;10.68;;;9.20;99.90;;;;;;5052187;28;20232;-70
2021/11/13 12:04:12;;;;;;;17.55;12.75;;;9.30;99.90;;;;;;5051791;28;20213;-68
2021/11/13 12:06:48;;;;;;;13.98;11.00;;;9.30;99.90;;;;;;5051967;28;20206;-69
2021/11/13 12:09:15;;;;;;;9.38;8.38;;;9.30;99.90;;;;;;5051923;28;20696;-70
2021/11/13 12:11:43;;;;;;;11.02;9.88;;;9.30;99.90;;;;;;5052132;28;20206;-70
2021/11/13 12:14:27;;;;;;;11.50;9.80;;;9.20;99.90;;;;;;5051585;28;20232;-70
2021/11/13 12:17:16;;;;;;;10.60;9.50;;;9.20;99.90;;;;;;5051217;28;20299;-71
2021/11/13 12:20:25;;;;;;;14.00;9.80;;;9.20;99.90;;;;;;5052580;28;20266;-69
2021/11/13 12:23:00;;;;;;;13.38;10.05;;;9.20;99.90;;;;;;5051560;28;20205;-70
2021/11/13 12:25:30;;;;;;;14.00;10.18;;;9.10;99.90;;;;;;5042306;28;20199;-71
2021/11/13 12:28:09;;;;;;;16.67;10.20;;;9.20;99.90;;;;;;5049660;28;20270;-70
2021/11/13 12:30:54;;;;;;;12.63;9.20;;;9.20;99.90;;;;;;5052037;28;20308;-70
2021/11/13 12:34:02;;;;;;;10.20;9.20;;;9.20;99.90;;;;;;5051253;28;20674;-71
2021/11/13 12:36:31;;;;;;;12.57;9.88;;;9.20;99.90;;;;;;5051753;28;20197;-70
2021/11/13 12:39:06;;;;;;;9.68;8.77;;;9.10;99.90;;;;;;5039821;28;20209;-70
2021/11/13 12:41:44;;;;;;;12.18;9.75;;;9.10;99.90;;;;;;5051303;28;20209;-70
2021/11/13 12:44:14;;;;;;;9.65;8.60;;;9.10;99.90;;;;;;5051232;28;20201;-70
2021/11/13 12:46:44;;;;;;;16.85;11.00;;;9.10;99.90;;;;;;5051753;28;20201;-70
2021/11/13 12:49:35;;;;;;;15.90;10.55;;;9.00;99.90;;;;;;5047251;28;20203;-71
2021/11/13 12:52:10;;;;;;;24.98;19.75;;;9.10;99.90;;;;;;5046354;28;20209;-70
2021/11/13 12:54:41;;;;;;;19.90;15.60;;;9.10;99.90;;;;;;5051536;28;20217;-70
2021/11/13 12:57:09;;;;;;;12.98;11.55;;;9.10;99.90;;;;;;5050768;28;20332;-70
2021/11/13 12:59:38;;;;;;;19.38;15.02;;;9.10;99.90;;;;;;5051210;28;20624;-70
2021/11/13 13:02:08;;;;;;;16.15;12.07;;;9.10;99.90;;;;;;5050846;28;20206;-70
2021/11/13 13:04:39;;;;;;;14.07;11.95;;;9.10;99.90;;;;;;5051157;28;20233;-70
2021/11/13 13:07:07;;;;;;;14.80;10.98;;;9.20;99.90;;;;;;5050229;28;20241;-70
2021/11/13 13:09:46;;;;;;;21.30;15.10;;;9.20;99.90;;;;;;5050983;28;20412;-70
2021/11/13 13:12:16;;;;;;;18.27;16.40;;;9.10;99.90;;;;;;5049923;28;20638;-70
2021/11/13 13:14:42;;;;;;;13.70;11.45;;;9.10;99.90;;;;;;5050781;28;20202;-69
2021/11/13 13:17:09;;;;;;;23.70;19.55;;;9.20;99.90;;;;;;5049449;28;20221;-71
2021/11/13 13:19:39;;;;;;;17.88;14.68;;;9.20;99.90;;;;;;5050685;28;20796;-69
2021/11/13 13:22:10;;;;;;;19.50;15.77;;;9.20;99.90;;;;;;5050330;28;20201;-70
2021/11/13 13:24:38;;;;;;;17.98;13.32;;;9.20;99.90;;;;;;5051095;28;20347;-70
2021/11/13 13:27:08;;;;;;;20.42;15.23;;;9.20;99.90;;;;;;5049462;28;20317;-70
2021/11/13 13:29:35;;;;;;;18.52;12.00;;;9.20;99.90;;;;;;5050099;28;20316;-71
2021/11/13 13:32:05;;;;;;;16.48;14.60;;;9.20;99.90;;;;;;5049639;28;20202;-70
2021/11/13 13:34:33;;;;;;;38.30;25.90;;;9.20;99.90;;;;;;5050453;28;20208;-70
2021/11/13 13:37:10;;;;;;;26.02;17.77;;;9.20;99.90;;;;;;5050105;28;20623;-71
2021/11/13 13:39:37;;;;;;;56.40;35.53;;;9.20;99.90;;;;;;5042072;28;20416;-70
2021/11/13 13:42:04;;;;;;;29.10;20.98;;;9.20;99.90;;;;;;5049087;28;20231;-69
2021/11/13 13:44:31;;;;;;;35.92;26.15;;;9.20;99.90;;;;;;5049606;28;20213;-68
2021/11/13 13:46:59;;;;;;;22.70;15.60;;;9.10;99.90;;;;;;5049919;28;20229;-69
2021/11/13 13:49:26;;;;;;;14.60;12.80;;;9.10;99.90;;;;;;5049975;28;20213;-71
2021/11/13 13:51:56;;;;;;;12.63;11.30;;;9.00;99.90;;;;;;5050053;28;20279;-71
2021/11/13 13:54:27;;;;;;;14.30;11.85;;;9.00;99.90;;;;;;5050058;28;20689;-70
2021/11/13 13:56:57;;;;;;;14.85;10.10;;;9.00;99.90;;;;;;5049597;28;20635;-69
2021/11/13 13:59:25;;;;;;;17.35;12.85;;;8.90;99.90;;;;;;5049766;28;20221;-69
2021/11/13 14:01:54;;;;;;;14.00;10.30;;;8.90;99.90;;;;;;5049804;28;20206;-69
2021/11/13 14:04:21;;;;;;;14.63;10.68;;;9.00;99.90;;;;;;5050356;28;20236;-69
2021/11/13 14:06:48;;;;;;;15.02;11.10;;;9.00;99.90;;;;;;5050019;28;20206;-69
2021/11/13 14:09:15;;;;;;;11.30;10.07;;;9.00;99.90;;;;;;5049985;28;20214;-69
2021/11/13 14:11:43;;;;;;;16.48;10.02;;;9.00;99.90;;;;;;5049237;28;20222;-70
2021/11/13 14:14:23;;;;;;;15.38;10.60;;;9.00;99.90;;;;;;5049969;28;20206;-69
2021/11/13 14:16:50;;;;;;;14.70;11.50;;;8.90;99.90;;;;;;5050255;28;20202;-71
2021/11/13 14:19:16;;;;;;;13.20;10.05;;;8.90;99.90;;;;;;5047962;28;20208;-70
2021/11/13 14:21:44;;;;;;;13.57;10.70;;;8.90;99.90;;;;;;5049918;28;20576;-70
2021/11/13 14:24:19;;;;;;;19.48;11.70;;;8.90;99.90;;;;;;5049656;28;20544;-69
2021/11/13 14:26:58;;;;;;;13.23;10.10;;;8.90;99.90;;;;;;5049777;28;20245;-69
2021/11/13 14:29:24;;;;;;;15.40;11.48;;;8.80;99.90;;;;;;5050223;28;20206;-69
2021/11/13 14:31:51;;;;;;;12.00;10.65;;;8.90;99.90;;;;;;5053520;28;20362;-69
2021/11/13 14:34:21;;;;;;;14.57;10.60;;;8.90;99.90;;;;;;5053342;28;20205;-69
2021/11/13 14:36:54;;;;;;;14.38;10.30;;;8.90;99.90;;;;;;5054155;28;20260;-69
2021/11/13 14:39:24;;;;;;;16.95;11.15;;;8.90;99.90;;;;;;5053037;28;20228;-71
2021/11/13 14:41:58;;;;;;;15.25;11.27;;;8.80;99.90;;;;;;5053159;28;20190;-70
2021/11/13 14:44:27;;;;;;;17.88;11.90;;;8.80;99.90;;;;;;5053998;28;20285;-69
2021/11/13 14:46:56;;;;;;;17.10;11.48;;;8.80;99.90;;;;;;5053225;28;20272;-70
2021/11/13 14:49:24;;;;;;;17.00;12.00;;;8.80;99.90;;;;;;5045385;28;20203;-69
2021/11/13 14:51:52;;;;;;;15.73;11.63;;;8.80;99.90;;;;;;5053733;28;20221;-70
2021/11/13 14:54:20;;;;;;;14.60;11.90;;;8.80;99.90;;;;;;5053877;28;20567;-70
2021/11/13 14:56:49;;;;;;;13.60;11.25;;;8.80;99.90;;;;;;5050646;28;20208;-69
2021/11/13 14:59:23;;;;;;;22.20;12.57;;;8.80;99.90;;;;;;5047640;28;20297;-70
2021/11/13 15:01:52;;;;;;;12.60;10.60;;;8.80;99.90;;;;;;5063059;28;20198;-70
2021/11/13 15:04:25;;;;;;;17.13;12.20;;;8.80;99.90;;;;;;5054386;28;20721;-70
2021/11/13 15:07:00;;;;;;;16.85;11.77;;;8.70;99.90;;;;;;5066309;28;20205;-70
2021/11/13 15:09:28;;;;;;;17.23;10.57;;;8.70;99.90;;;;;;5054664;28;20194;-70
2021/11/13 15:11:55;;;;;;;18.20;12.20;;;8.70;99.90;;;;;;5051860;28;20752;-70
2021/11/13 15:14:25;;;;;;;17.73;12.02;;;8.70;99.90;;;;;;5052967;28;20288;-71
2021/11/13 15:16:53;;;;;;;18.58;11.73;;;8.70;99.90;;;;;;5056594;28;20659;-71
2021/11/13 15:19:19;;;;;;;18.52;12.20;;;8.70;99.90;;;;;;5052248;28;20197;-71
2021/11/13 15:21:47;;;;;;;22.50;13.10;;;8.70;99.90;;;;;;5053339;28;20350;-71
2021/11/13 15:24:19;;;;;;;15.77;12.52;;;8.60;99.90;;;;;;5056484;28;20202;-70
2021/11/13 15:26:46;;;;;;;19.50;12.55;;;8.60;99.90;;;;;;5052145;28;20202;-70
2021/11/13 15:29:15;;;;;;;16.38;11.65;;;8.60;99.90;;;;;;5052337;28;20198;-71
2021/11/13 15:31:47;;;;;;;22.02;12.48;;;8.60;99.90;;;;;;5052737;28;20225;-69
2021/11/13 15:34:25;;;;;;;28.70;19.40;;;8.60;99.90;;;;;;5052661;28;20281;-69
2021/11/13 15:37:00;;;;;;;17.75;12.40;;;8.60;99.90;;;;;;5052758;28;20206;-69
2021/11/13 15:39:27;;;;;;;26.90;17.30;;;8.60;99.90;;;;;;5050880;28;20216;-69
2021/11/13 15:41:54;;;;;;;41.58;28.08;;;8.60;99.90;;;;;;5051754;28;20194;-70
2021/11/13 15:44:23;;;;;;;17.50;12.43;;;8.60;99.90;;;;;;5051268;28;20214;-69
2021/11/13 15:46:53;;;;;;;18.20;13.05;;;8.60;99.90;;;;;;5052114;28;20769;-70
2021/11/13 15:49:33;;;;;;;20.67;16.35;;;8.60;99.90;;;;;;5051339;28;20209;-69
2021/11/13 15:52:00;;;;;;;20.48;13.55;;;8.60;99.90;;;;;;5049973;28;20584;-70
2021/11/13 15:54:27;;;;;;;17.23;12.57;;;8.60;99.90;;;;;;5053839;28;20247;-69
2021/11/13 15:56:54;;;;;;;16.38;13.27;;;8.60;99.90;;;;;;5065858;28;20222;-69
2021/11/13 15:59:22;;;;;;;21.30;13.30;;;8.60;99.90;;;;;;5051903;28;20312;-70
2021/11/13 16:01:52;;;;;;;15.73;12.95;;;8.60;99.90;;;;;;5055681;28;20194;-70
2021/11/13 16:04:20;;;;;;;20.60;14.10;;;8.60;99.90;;;;;;5069865;28;20282;-69
2021/11/13 16:06:48;;;;;;;21.00;13.32;;;8.60;99.90;;;;;;5055516;28;20284;-69
2021/11/13 16:09:17;;;;;;;17.40;13.27;;;8.60;99.90;;;;;;5068417;28;20204;-70
2021/11/13 16:11:46;;;;;;;22.40;16.80;;;8.60;99.90;;;;;;5061531;28;20233;-69
2021/11/13 16:14:14;;;;;;;21.35;16.10;;;8.60;99.90;;;;;;5052361;28;20287;-70
2021/11/13 16:16:41;;;;;;;20.50;14.40;;;8.70;99.90;;;;;;5051855;28;20285;-70
2021/11/13 16:19:09;;;;;;;22.27;15.93;;;8.60;99.90;;;;;;5054789;28;20205;-69
2021/11/13 16:21:37;;;;;;;18.27;13.77;;;8.60;99.90;;;;;;5052115;28;20205;-69
2021/11/13 16:24:05;;;;;;;21.25;15.07;;;8.60;99.90;;;;;;5051719;28;20662;-69
2021/11/13 16:26:32;;;;;;;17.23;13.50;;;8.60;99.90;;;;;;5051668;28;20615;-69
2021/11/13 16:28:58;;;;;;;18.65;14.93;;;8.60;99.90;;;;;;5051645;28;20221;-69
2021/11/13 16:31:25;;;;;;;20.15;13.90;;;8.60;99.90;;;;;;5054520;28;20363;-70
2021/11/13 16:33:52;;;;;;;20.15;14.57;;;8.60;99.90;;;;;;5054091;28;20281;-70
2021/11/13 16:36:20;;;;;;;22.27;14.07;;;8.60;99.90;;;;;;5054876;28;20260;-70
2021/11/13 16:38:47;;;;;;;26.02;15.10;;;8.60;99.90;;;;;;5052899;28;20307;-69
2021/11/13 16:41:16;;;;;;;23.20;15.77;;;8.60;99.90;;;;;;5053501;28;20612;-69
2021/11/13 16:43:45;;;;;;;14.55;12.02;;;8.60;99.90;;;;;;5053889;28;20217;-69
2021/11/13 16:46:14;;;;;;;25.10;15.77;;;8.60;99.90;;;;;;5054595;28;20205;-70
2021/11/13 16:48:42;;;;;;;20.27;14.90;;;8.60;99.90;;;;;;5052094;28;20218;-69
2021/11/13 16:51:12;;;;;;;22.60;15.25;;;8.60;99.90;;;;;;5051211;28;20222;-70
2021/11/13 16:53:41;;;;;;;22.38;16.25;;;8.60;99.90;;;;;;5049269;28;20225;-70
2021/11/13 16:56:13;;;;;;;28.40;16.13;;;8.60;99.90;;;;;;5053156;28;20209;-69
2021/11/13 16:58:41;;;;;;;21.45;14.98;;;8.50;99.90;;;;;;5051599;28;20266;-69
2021/11/13 17:01:11;;;;;;;29.15;21.02;;;8.50;99.90;;;;;;5053944;28;20666;-69
2021/11/13 17:03:38;;;;;;;27.52;17.48;;;8.50;99.90;;;;;;5054924;28;20205;-69
2021/11/13 17:06:05;;;;;;;24.92;16.83;;;8.50;99.90;;;;;;5052029;28;20279;-69
2021/11/13 17:08:32;;;;;;;27.80;17.50;;;8.50;99.90;;;;;;5050565;28;20255;-69
2021/11/13 17:11:01;;;;;;;30.13;17.75;;;8.50;99.90;;;;;;5050020;28;20228;-69
2021/11/13 17:13:27;;;;;;;25.45;16.70;;;8.50;99.90;;;;;;5052891;28;20209;-69
2021/11/13 17:15:54;;;;;;;21.27;14.90;;;8.50;99.90;;;;;;5058562;28;20251;-70
2021/11/13 17:18:21;;;;;;;27.30;16.17;;;8.50;99.90;;;;;;5049208;28;20230;-69
2021/11/13 17:20:48;;;;;;;27.13;17.20;;;8.50;99.90;;;;;;5050732;28;20278;-68
2021/11/13 17:23:15;;;;;;;20.90;14.98;;;8.50;99.90;;;;;;5049655;28;20212;-70
2021/11/13 17:25:43;;;;;;;26.80;15.10;;;8.40;99.90;;;;;;5049869;28;20234;-70
2021/11/13 17:28:11;;;;;;;22.92;15.40;;;8.40;99.90;;;;;;5049388;28;20244;-69
2021/11/13 17:30:41;;;;;;;24.73;15.43;;;8.40;99.90;;;;;;5050497;28;20695;-70
2021/11/13 17:33:08;;;;;;;22.35;15.93;;;8.40;99.90;;;;;;5049794;28;20340;-70
2021/11/13 17:35:36;;;;;;;28.48;15.43;;;8.40;99.90;;;;;;5050069;28;20233;-70
2021/11/13 17:38:03;;;;;;;27.98;15.25;;;8.40;99.90;;;;;;5049921;28;20221;-70
2021/11/13 17:40:30;;;;;;;24.70;16.10;;;8.40;99.90;;;;;;5049100;28;20244;-70
2021/11/13 17:42:58;;;;;;;23.10;15.15;;;8.40;99.90;;;;;;5036016;28;20202;-69
2021/11/13 17:45:30;;;;;;;29.20;15.88;;;8.40;99.90;;;;;;5043045;28;20290;-70
2021/11/13 17:47:58;;;;;;;21.75;15.73;;;8.40;99.90;;;;;;5049667;28;20238;-69